sensor_id;sensor_type;location;lat;lon;timestamp;P1;durP1;ratioP1;P2;durP2;ratioP2
34541;SDS011;20784;51.332;12.410;2023-07-20T00:01:45;4.20;;;3.33;;
34541;SDS011;20784;51.332;12.410;2023-07-20T00:04:11;4.85;;;3.20;;
34541;SDS011;20784;51.332;12.410;2023-07-20T00:06:39;5.78;;;3.10;;
34541;SDS011;20784;51.332;12.410;2023-07-20T00:09:08;7.53;;;3.17;;
34541;SDS011;20784;51.332;12.410;2023-07-20T00:11:37;5.82;;;3.20;;
34541;SDS011;20784;51.332;12.410;2023-07-20T00:14:04;4.88;;;2.45;;
34541;SDS011;20784;51.332;12.410;2023-07-20T00:16:30;7.85;;;2.80;;
34541;SDS011;20784;51.332;12.410;2023-07-20T00:18:56;4.25;;;2.47;;
34541;SDS011;20784;51.332;12.410;2023-07-20T00:21:21;3.50;;;2.20;;
34541;SDS011;20784;51.332;12.410;2023-07-20T00:23:47;5.95;;;2.50;;
34541;SDS011;20784;51.332;12.410;2023-07-20T00:26:13;4.00;;;2.78;;
34541;SDS011;20784;51.332;12.410;2023-07-20T00:28:38;3.90;;;2.30;;
34541;SDS011;20784;51.332;12.410;2023-07-20T00:31:04;4.78;;;2.10;;
34541;SDS011;20784;51.332;12.410;2023-07-20T00:33:30;6.25;;;1.95;;
34541;SDS011;20784;51.332;12.410;2023-07-20T00:35:55;3.15;;;2.00;;
34541;SDS011;20784;51.332;12.410;2023-07-20T00:38:21;4.07;;;2.03;;
34541;SDS011;20784;51.332;12.410;2023-07-20T00:40:47;3.08;;;2.25;;
34541;SDS011;20784;51.332;12.410;2023-07-20T00:43:16;4.88;;;2.70;;
34541;SDS011;20784;51.332;12.410;2023-07-20T00:45:42;4.70;;;2.65;;
34541;SDS011;20784;51.332;12.410;2023-07-20T00:48:08;5.43;;;2.80;;
34541;SDS011;20784;51.332;12.410;2023-07-20T00:50:34;4.07;;;2.80;;
34541;SDS011;20784;51.332;12.410;2023-07-20T00:53:00;3.85;;;2.35;;
34541;SDS011;20784;51.332;12.410;2023-07-20T00:55:30;5.57;;;3.08;;
34541;SDS011;20784;51.332;12.410;2023-07-20T00:57:55;5.82;;;2.70;;
34541;SDS011;20784;51.332;12.410;2023-07-20T01:00:23;4.75;;;2.78;;
34541;SDS011;20784;51.332;12.410;2023-07-20T01:02:50;4.50;;;3.05;;
34541;SDS011;20784;51.332;12.410;2023-07-20T01:05:16;4.03;;;3.15;;
34541;SDS011;20784;51.332;12.410;2023-07-20T01:07:43;2.92;;;2.60;;
34541;SDS011;20784;51.332;12.410;2023-07-20T01:10:38;4.88;;;3.15;;
34541;SDS011;20784;51.332;12.410;2023-07-20T01:13:06;4.38;;;3.00;;
34541;SDS011;20784;51.332;12.410;2023-07-20T01:15:37;3.97;;;2.58;;
34541;SDS011;20784;51.332;12.410;2023-07-20T01:18:03;3.92;;;2.88;;
34541;SDS011;20784;51.332;12.410;2023-07-20T01:20:31;8.18;;;2.85;;
34541;SDS011;20784;51.332;12.410;2023-07-20T01:31:30;6.15;;;2.28;;
34541;SDS011;20784;51.332;12.410;2023-07-20T01:33:58;4.40;;;2.47;;
34541;SDS011;20784;51.332;12.410;2023-07-20T01:36:28;4.07;;;2.25;;
34541;SDS011;20784;51.332;12.410;2023-07-20T01:38:58;5.43;;;2.33;;
34541;SDS011;20784;51.332;12.410;2023-07-20T01:41:24;4.45;;;3.55;;
34541;SDS011;20784;51.332;12.410;2023-07-20T01:43:49;3.45;;;2.38;;
34541;SDS011;20784;51.332;12.410;2023-07-20T01:46:18;4.70;;;2.00;;
34541;SDS011;20784;51.332;12.410;2023-07-20T01:48:44;3.42;;;2.22;;
34541;SDS011;20784;51.332;12.410;2023-07-20T01:51:09;5.60;;;2.65;;
34541;SDS011;20784;51.332;12.410;2023-07-20T01:53:45;5.60;;;2.60;;
34541;SDS011;20784;51.332;12.410;2023-07-20T01:56:13;3.22;;;2.28;;
34541;SDS011;20784;51.332;12.410;2023-07-20T01:58:45;2.80;;;2.15;;
34541;SDS011;20784;51.332;12.410;2023-07-20T02:01:10;2.83;;;2.00;;
34541;SDS011;20784;51.332;12.410;2023-07-20T02:03:36;4.22;;;2.00;;
34541;SDS011;20784;51.332;12.410;2023-07-20T02:06:07;4.47;;;2.35;;
34541;SDS011;20784;51.332;12.410;2023-07-20T02:08:33;3.80;;;2.22;;
34541;SDS011;20784;51.332;12.410;2023-07-20T02:10:58;4.25;;;2.40;;
34541;SDS011;20784;51.332;12.410;2023-07-20T02:13:24;6.45;;;2.63;;
34541;SDS011;20784;51.332;12.410;2023-07-20T02:15:50;3.90;;;2.17;;
34541;SDS011;20784;51.332;12.410;2023-07-20T02:18:16;4.75;;;2.40;;
34541;SDS011;20784;51.332;12.410;2023-07-20T02:20:41;4.72;;;2.28;;
34541;SDS011;20784;51.332;12.410;2023-07-20T02:23:07;6.93;;;2.85;;
34541;SDS011;20784;51.332;12.410;2023-07-20T02:25:33;3.85;;;2.63;;
34541;SDS011;20784;51.332;12.410;2023-07-20T02:27:58;4.07;;;2.30;;
34541;SDS011;20784;51.332;12.410;2023-07-20T02:30:24;6.22;;;2.97;;
34541;SDS011;20784;51.332;12.410;2023-07-20T02:32:50;2.85;;;2.47;;
34541;SDS011;20784;51.332;12.410;2023-07-20T02:35:16;3.92;;;2.75;;
34541;SDS011;20784;51.332;12.410;2023-07-20T02:37:41;4.20;;;2.72;;
34541;SDS011;20784;51.332;12.410;2023-07-20T02:40:07;3.50;;;2.70;;
34541;SDS011;20784;51.332;12.410;2023-07-20T02:42:34;5.72;;;3.10;;
34541;SDS011;20784;51.332;12.410;2023-07-20T02:45:00;4.53;;;3.20;;
34541;SDS011;20784;51.332;12.410;2023-07-20T02:47:26;4.88;;;3.40;;
34541;SDS011;20784;51.332;12.410;2023-07-20T02:49:52;3.88;;;2.97;;
34541;SDS011;20784;51.332;12.410;2023-07-20T02:52:17;5.43;;;3.13;;
34541;SDS011;20784;51.332;12.410;2023-07-20T02:54:43;5.28;;;2.90;;
34541;SDS011;20784;51.332;12.410;2023-07-20T02:57:09;4.20;;;3.13;;
34541;SDS011;20784;51.332;12.410;2023-07-20T02:59:34;5.22;;;3.30;;
34541;SDS011;20784;51.332;12.410;2023-07-20T03:02:00;5.07;;;3.25;;
34541;SDS011;20784;51.332;12.410;2023-07-20T03:04:26;6.32;;;3.42;;
34541;SDS011;20784;51.332;12.410;2023-07-20T03:06:52;7.78;;;3.65;;
34541;SDS011;20784;51.332;12.410;2023-07-20T03:09:18;7.10;;;3.15;;
34541;SDS011;20784;51.332;12.410;2023-07-20T03:11:44;6.30;;;3.20;;
34541;SDS011;20784;51.332;12.410;2023-07-20T03:14:09;6.55;;;3.38;;
34541;SDS011;20784;51.332;12.410;2023-07-20T03:16:38;7.07;;;3.47;;
34541;SDS011;20784;51.332;12.410;2023-07-20T03:19:04;11.50;;;3.50;;
34541;SDS011;20784;51.332;12.410;2023-07-20T03:21:30;4.10;;;2.92;;
34541;SDS011;20784;51.332;12.410;2023-07-20T03:23:55;4.78;;;2.78;;
34541;SDS011;20784;51.332;12.410;2023-07-20T03:26:24;6.07;;;3.22;;
34541;SDS011;20784;51.332;12.410;2023-07-20T03:28:50;5.15;;;3.22;;
34541;SDS011;20784;51.332;12.410;2023-07-20T03:31:16;9.35;;;4.03;;
34541;SDS011;20784;51.332;12.410;2023-07-20T03:33:44;5.15;;;3.10;;
34541;SDS011;20784;51.332;12.410;2023-07-20T03:36:13;5.43;;;3.38;;
34541;SDS011;20784;51.332;12.410;2023-07-20T03:38:41;4.88;;;2.83;;
34541;SDS011;20784;51.332;12.410;2023-07-20T03:41:10;6.63;;;3.10;;
34541;SDS011;20784;51.332;12.410;2023-07-20T03:43:36;5.10;;;3.03;;
34541;SDS011;20784;51.332;12.410;2023-07-20T03:46:02;3.90;;;2.88;;
34541;SDS011;20784;51.332;12.410;2023-07-20T03:48:34;4.55;;;3.17;;
34541;SDS011;20784;51.332;12.410;2023-07-20T03:53:37;7.65;;;2.88;;
34541;SDS011;20784;51.332;12.410;2023-07-20T03:56:07;3.53;;;2.60;;
34541;SDS011;20784;51.332;12.410;2023-07-20T03:58:35;4.20;;;2.80;;
34541;SDS011;20784;51.332;12.410;2023-07-20T04:01:03;5.05;;;2.75;;
34541;SDS011;20784;51.332;12.410;2023-07-20T04:03:32;4.53;;;2.40;;
34541;SDS011;20784;51.332;12.410;2023-07-20T04:05:58;6.85;;;2.75;;
34541;SDS011;20784;51.332;12.410;2023-07-20T04:08:24;3.00;;;2.60;;
34541;SDS011;20784;51.332;12.410;2023-07-20T04:10:49;9.05;;;2.88;;
34541;SDS011;20784;51.332;12.410;2023-07-20T04:13:15;5.95;;;2.80;;
34541;SDS011;20784;51.332;12.410;2023-07-20T04:15:42;3.80;;;2.70;;
34541;SDS011;20784;51.332;12.410;2023-07-20T04:18:07;6.05;;;3.10;;
34541;SDS011;20784;51.332;12.410;2023-07-20T04:20:33;4.13;;;2.85;;
34541;SDS011;20784;51.332;12.410;2023-07-20T04:22:59;3.47;;;2.65;;
34541;SDS011;20784;51.332;12.410;2023-07-20T04:25:24;4.65;;;2.95;;
34541;SDS011;20784;51.332;12.410;2023-07-20T04:27:53;3.45;;;2.80;;
34541;SDS011;20784;51.332;12.410;2023-07-20T04:30:21;6.20;;;2.60;;
34541;SDS011;20784;51.332;12.410;2023-07-20T04:32:48;3.33;;;2.53;;
34541;SDS011;20784;51.332;12.410;2023-07-20T04:35:26;5.30;;;3.28;;
34541;SDS011;20784;51.332;12.410;2023-07-20T04:38:15;2.97;;;2.40;;
34541;SDS011;20784;51.332;12.410;2023-07-20T04:40:48;4.05;;;2.95;;
34541;SDS011;20784;51.332;12.410;2023-07-20T04:43:15;3.50;;;2.85;;
34541;SDS011;20784;51.332;12.410;2023-07-20T04:45:45;4.65;;;2.55;;
34541;SDS011;20784;51.332;12.410;2023-07-20T04:48:12;9.55;;;2.80;;
34541;SDS011;20784;51.332;12.410;2023-07-20T04:50:43;6.70;;;2.45;;
34541;SDS011;20784;51.332;12.410;2023-07-20T04:53:10;6.37;;;3.33;;
34541;SDS011;20784;51.332;12.410;2023-07-20T04:55:36;3.53;;;2.75;;
34541;SDS011;20784;51.332;12.410;2023-07-20T04:58:03;5.38;;;3.05;;
34541;SDS011;20784;51.332;12.410;2023-07-20T05:00:29;4.45;;;2.83;;
34541;SDS011;20784;51.332;12.410;2023-07-20T05:02:57;6.13;;;2.60;;
34541;SDS011;20784;51.332;12.410;2023-07-20T05:05:22;4.07;;;3.05;;
34541;SDS011;20784;51.332;12.410;2023-07-20T05:07:49;5.95;;;2.60;;
34541;SDS011;20784;51.332;12.410;2023-07-20T05:10:14;7.68;;;3.10;;
34541;SDS011;20784;51.332;12.410;2023-07-20T05:12:40;5.18;;;3.05;;
34541;SDS011;20784;51.332;12.410;2023-07-20T05:15:06;7.35;;;2.70;;
34541;SDS011;20784;51.332;12.410;2023-07-20T05:17:34;4.88;;;2.90;;
34541;SDS011;20784;51.332;12.410;2023-07-20T05:20:00;7.20;;;4.50;;
34541;SDS011;20784;51.332;12.410;2023-07-20T05:22:26;6.40;;;2.85;;
34541;SDS011;20784;51.332;12.410;2023-07-20T05:24:51;5.82;;;2.30;;
34541;SDS011;20784;51.332;12.410;2023-07-20T05:27:17;3.97;;;2.53;;
34541;SDS011;20784;51.332;12.410;2023-07-20T05:29:46;3.40;;;2.60;;
34541;SDS011;20784;51.332;12.410;2023-07-20T05:32:12;6.30;;;2.63;;
34541;SDS011;20784;51.332;12.410;2023-07-20T05:34:41;9.55;;;4.03;;
34541;SDS011;20784;51.332;12.410;2023-07-20T05:37:07;6.03;;;2.17;;
34541;SDS011;20784;51.332;12.410;2023-07-20T05:39:33;3.67;;;2.88;;
34541;SDS011;20784;51.332;12.410;2023-07-20T05:41:58;3.20;;;2.42;;
34541;SDS011;20784;51.332;12.410;2023-07-20T05:44:24;3.40;;;2.75;;
34541;SDS011;20784;51.332;12.410;2023-07-20T05:46:49;3.90;;;2.50;;
34541;SDS011;20784;51.332;12.410;2023-07-20T05:49:15;5.15;;;2.42;;
34541;SDS011;20784;51.332;12.410;2023-07-20T05:51:44;5.10;;;2.47;;
34541;SDS011;20784;51.332;12.410;2023-07-20T05:54:12;4.32;;;2.20;;
34541;SDS011;20784;51.332;12.410;2023-07-20T05:56:38;3.75;;;2.65;;
34541;SDS011;20784;51.332;12.410;2023-07-20T05:59:04;4.40;;;2.05;;
34541;SDS011;20784;51.332;12.410;2023-07-20T06:01:29;3.47;;;2.22;;
34541;SDS011;20784;51.332;12.410;2023-07-20T06:03:55;2.75;;;2.38;;
34541;SDS011;20784;51.332;12.410;2023-07-20T06:06:21;3.60;;;2.70;;
34541;SDS011;20784;51.332;12.410;2023-07-20T06:08:46;7.43;;;4.32;;
34541;SDS011;20784;51.332;12.410;2023-07-20T06:11:12;6.22;;;2.30;;
34541;SDS011;20784;51.332;12.410;2023-07-20T06:13:38;3.45;;;1.85;;
34541;SDS011;20784;51.332;12.410;2023-07-20T06:16:03;2.40;;;2.15;;
34541;SDS011;20784;51.332;12.410;2023-07-20T06:18:32;2.42;;;1.92;;
34541;SDS011;20784;51.332;12.410;2023-07-20T06:20:58;4.55;;;1.95;;
34541;SDS011;20784;51.332;12.410;2023-07-20T06:23:24;3.50;;;1.95;;
34541;SDS011;20784;51.332;12.410;2023-07-20T06:26:00;2.83;;;1.90;;
34541;SDS011;20784;51.332;12.410;2023-07-20T06:28:33;3.10;;;1.65;;
34541;SDS011;20784;51.332;12.410;2023-07-20T06:31:00;2.30;;;1.90;;
34541;SDS011;20784;51.332;12.410;2023-07-20T06:33:32;2.92;;;1.90;;
34541;SDS011;20784;51.332;12.410;2023-07-20T06:35:59;3.22;;;2.40;;
34541;SDS011;20784;51.332;12.410;2023-07-20T06:38:25;3.33;;;2.38;;
34541;SDS011;20784;51.332;12.410;2023-07-20T06:40:54;3.22;;;1.80;;
34541;SDS011;20784;51.332;12.410;2023-07-20T06:43:23;3.40;;;2.65;;
34541;SDS011;20784;51.332;12.410;2023-07-20T06:45:52;3.35;;;2.20;;
34541;SDS011;20784;51.332;12.410;2023-07-20T06:48:21;5.50;;;2.22;;
34541;SDS011;20784;51.332;12.410;2023-07-20T06:50:52;2.95;;;2.40;;
34541;SDS011;20784;51.332;12.410;2023-07-20T06:53:19;3.47;;;2.50;;
34541;SDS011;20784;51.332;12.410;2023-07-20T06:55:58;3.08;;;2.47;;
34541;SDS011;20784;51.332;12.410;2023-07-20T06:58:24;3.10;;;2.60;;
34541;SDS011;20784;51.332;12.410;2023-07-20T07:00:50;5.60;;;3.03;;
34541;SDS011;20784;51.332;12.410;2023-07-20T07:03:17;3.70;;;2.50;;
34541;SDS011;20784;51.332;12.410;2023-07-20T07:05:45;4.80;;;2.80;;
34541;SDS011;20784;51.332;12.410;2023-07-20T07:08:13;3.55;;;2.30;;
34541;SDS011;20784;51.332;12.410;2023-07-20T07:10:39;6.30;;;2.80;;
34541;SDS011;20784;51.332;12.410;2023-07-20T07:13:04;5.55;;;2.92;;
34541;SDS011;20784;51.332;12.410;2023-07-20T07:15:44;4.25;;;2.30;;
34541;SDS011;20784;51.332;12.410;2023-07-20T07:18:11;4.45;;;2.72;;
34541;SDS011;20784;51.332;12.410;2023-07-20T07:20:37;5.55;;;3.30;;
34541;SDS011;20784;51.332;12.410;2023-07-20T07:23:02;6.03;;;2.85;;
34541;SDS011;20784;51.332;12.410;2023-07-20T07:25:30;3.20;;;2.90;;
34541;SDS011;20784;51.332;12.410;2023-07-20T07:27:57;5.50;;;3.00;;
34541;SDS011;20784;51.332;12.410;2023-07-20T07:30:23;8.68;;;3.22;;
34541;SDS011;20784;51.332;12.410;2023-07-20T07:32:50;3.53;;;3.03;;
34541;SDS011;20784;51.332;12.410;2023-07-20T07:35:17;4.20;;;2.88;;
34541;SDS011;20784;51.332;12.410;2023-07-20T07:37:45;6.45;;;3.45;;
34541;SDS011;20784;51.332;12.410;2023-07-20T07:40:13;4.32;;;2.90;;
34541;SDS011;20784;51.332;12.410;2023-07-20T07:42:41;4.97;;;2.75;;
34541;SDS011;20784;51.332;12.410;2023-07-20T07:45:16;4.25;;;2.90;;
34541;SDS011;20784;51.332;12.410;2023-07-20T07:47:45;5.10;;;2.70;;
34541;SDS011;20784;51.332;12.410;2023-07-20T07:50:10;3.30;;;2.78;;
34541;SDS011;20784;51.332;12.410;2023-07-20T07:52:41;3.10;;;2.80;;
34541;SDS011;20784;51.332;12.410;2023-07-20T07:55:07;4.22;;;2.60;;
34541;SDS011;20784;51.332;12.410;2023-07-20T07:57:32;4.10;;;3.22;;
34541;SDS011;20784;51.332;12.410;2023-07-20T07:59:58;5.70;;;3.17;;
34541;SDS011;20784;51.332;12.410;2023-07-20T08:02:24;4.47;;;3.17;;
34541;SDS011;20784;51.332;12.410;2023-07-20T08:04:49;10.68;;;2.88;;
34541;SDS011;20784;51.332;12.410;2023-07-20T08:07:18;3.97;;;3.28;;
34541;SDS011;20784;51.332;12.410;2023-07-20T08:09:44;4.63;;;2.83;;
34541;SDS011;20784;51.332;12.410;2023-07-20T08:12:09;3.72;;;2.92;;
34541;SDS011;20784;51.332;12.410;2023-07-20T08:14:35;2.88;;;2.58;;
34541;SDS011;20784;51.332;12.410;2023-07-20T08:17:01;4.88;;;2.67;;
34541;SDS011;20784;51.332;12.410;2023-07-20T08:19:26;2.92;;;2.63;;
34541;SDS011;20784;51.332;12.410;2023-07-20T08:21:52;4.20;;;2.78;;
34541;SDS011;20784;51.332;12.410;2023-07-20T08:24:18;3.92;;;2.70;;
34541;SDS011;20784;51.332;12.410;2023-07-20T08:26:46;7.00;;;3.00;;
34541;SDS011;20784;51.332;12.410;2023-07-20T08:29:12;4.30;;;2.95;;
34541;SDS011;20784;51.332;12.410;2023-07-20T08:31:37;4.45;;;3.10;;
34541;SDS011;20784;51.332;12.410;2023-07-20T08:34:05;5.05;;;3.35;;
34541;SDS011;20784;51.332;12.410;2023-07-20T08:36:31;5.03;;;3.03;;
34541;SDS011;20784;51.332;12.410;2023-07-20T08:39:00;3.83;;;3.25;;
34541;SDS011;20784;51.332;12.410;2023-07-20T08:41:28;3.25;;;2.67;;
34541;SDS011;20784;51.332;12.410;2023-07-20T08:43:54;3.92;;;3.30;;
34541;SDS011;20784;51.332;12.410;2023-07-20T08:46:21;3.83;;;2.80;;
34541;SDS011;20784;51.332;12.410;2023-07-20T08:48:51;6.15;;;3.17;;
34541;SDS011;20784;51.332;12.410;2023-07-20T08:51:18;3.83;;;3.25;;
34541;SDS011;20784;51.332;12.410;2023-07-20T08:53:46;5.47;;;2.55;;
34541;SDS011;20784;51.332;12.410;2023-07-20T08:56:13;2.42;;;2.22;;
34541;SDS011;20784;51.332;12.410;2023-07-20T08:58:41;3.35;;;2.25;;
34541;SDS011;20784;51.332;12.410;2023-07-20T09:01:09;3.45;;;2.20;;
34541;SDS011;20784;51.332;12.410;2023-07-20T09:03:39;5.65;;;2.67;;
34541;SDS011;20784;51.332;12.410;2023-07-20T09:06:08;3.72;;;2.47;;
34541;SDS011;20784;51.332;12.410;2023-07-20T09:08:33;2.45;;;2.22;;
34541;SDS011;20784;51.332;12.410;2023-07-20T09:11:03;5.25;;;2.40;;
34541;SDS011;20784;51.332;12.410;2023-07-20T09:13:29;4.28;;;2.55;;
34541;SDS011;20784;51.332;12.410;2023-07-20T09:15:55;3.60;;;2.20;;
34541;SDS011;20784;51.332;12.410;2023-07-20T09:18:24;3.88;;;2.17;;
34541;SDS011;20784;51.332;12.410;2023-07-20T09:21:03;5.10;;;1.90;;
34541;SDS011;20784;51.332;12.410;2023-07-20T09:23:31;2.63;;;1.85;;
34541;SDS011;20784;51.332;12.410;2023-07-20T09:26:09;3.92;;;2.10;;
34541;SDS011;20784;51.332;12.410;2023-07-20T09:28:42;4.28;;;2.00;;
34541;SDS011;20784;51.332;12.410;2023-07-20T09:31:16;3.42;;;2.00;;
34541;SDS011;20784;51.332;12.410;2023-07-20T09:33:42;5.03;;;2.00;;
34541;SDS011;20784;51.332;12.410;2023-07-20T09:36:09;7.00;;;2.05;;
34541;SDS011;20784;51.332;12.410;2023-07-20T09:38:36;3.45;;;2.00;;
34541;SDS011;20784;51.332;12.410;2023-07-20T09:41:02;2.47;;;2.28;;
34541;SDS011;20784;51.332;12.410;2023-07-20T09:43:30;4.30;;;1.95;;
34541;SDS011;20784;51.332;12.410;2023-07-20T09:45:58;3.00;;;2.67;;
34541;SDS011;20784;51.332;12.410;2023-07-20T09:48:26;3.08;;;1.80;;
34541;SDS011;20784;51.332;12.410;2023-07-20T09:50:52;3.53;;;2.70;;
34541;SDS011;20784;51.332;12.410;2023-07-20T09:53:19;3.58;;;2.50;;
34541;SDS011;20784;51.332;12.410;2023-07-20T09:55:46;2.80;;;2.38;;
34541;SDS011;20784;51.332;12.410;2023-07-20T09:58:12;4.80;;;3.35;;
34541;SDS011;20784;51.332;12.410;2023-07-20T10:00:39;9.10;;;3.40;;
34541;SDS011;20784;51.332;12.410;2023-07-20T10:03:10;3.97;;;2.50;;
34541;SDS011;20784;51.332;12.410;2023-07-20T10:05:39;6.15;;;3.05;;
34541;SDS011;20784;51.332;12.410;2023-07-20T10:08:12;5.85;;;3.47;;
34541;SDS011;20784;51.332;12.410;2023-07-20T10:10:38;5.03;;;3.05;;
34541;SDS011;20784;51.332;12.410;2023-07-20T10:13:08;4.97;;;2.95;;
34541;SDS011;20784;51.332;12.410;2023-07-20T10:21:15;5.15;;;3.92;;
34541;SDS011;20784;51.332;12.410;2023-07-20T10:23:42;7.50;;;4.28;;
34541;SDS011;20784;51.332;12.410;2023-07-20T10:26:08;6.63;;;4.70;;
34541;SDS011;20784;51.332;12.410;2023-07-20T10:28:35;8.20;;;5.50;;
34541;SDS011;20784;51.332;12.410;2023-07-20T10:31:01;5.82;;;4.10;;
34541;SDS011;20784;51.332;12.410;2023-07-20T10:33:28;4.93;;;3.72;;
34541;SDS011;20784;51.332;12.410;2023-07-20T10:35:58;4.72;;;4.05;;
34541;SDS011;20784;51.332;12.410;2023-07-20T10:38:44;8.13;;;3.90;;
34541;SDS011;20784;51.332;12.410;2023-07-20T10:41:19;6.38;;;3.60;;
34541;SDS011;20784;51.332;12.410;2023-07-20T10:44:04;3.42;;;2.53;;
34541;SDS011;20784;51.332;12.410;2023-07-20T10:49:04;2.78;;;1.88;;
34541;SDS011;20784;51.332;12.410;2023-07-20T10:51:44;2.20;;;2.00;;
34541;SDS011;20784;51.332;12.410;2023-07-20T10:56:44;2.92;;;1.88;;
34541;SDS011;20784;51.332;12.410;2023-07-20T10:59:19;3.00;;;2.33;;
34541;SDS011;20784;51.332;12.410;2023-07-20T11:02:02;2.13;;;1.92;;
34541;SDS011;20784;51.332;12.410;2023-07-20T11:07:07;3.67;;;2.38;;
34541;SDS011;20784;51.332;12.410;2023-07-20T11:09:37;2.35;;;2.15;;
34541;SDS011;20784;51.332;12.410;2023-07-20T11:12:17;2.58;;;2.17;;
34541;SDS011;20784;51.332;12.410;2023-07-20T11:14:55;2.75;;;2.35;;
34541;SDS011;20784;51.332;12.410;2023-07-20T11:17:28;1.90;;;1.70;;
34541;SDS011;20784;51.332;12.410;2023-07-20T11:20:10;2.28;;;1.80;;
34541;SDS011;20784;51.332;12.410;2023-07-20T11:22:38;1.80;;;1.63;;
34541;SDS011;20784;51.332;12.410;2023-07-20T11:25:09;3.10;;;1.85;;
34541;SDS011;20784;51.332;12.410;2023-07-20T11:27:43;2.17;;;1.58;;
34541;SDS011;20784;51.332;12.410;2023-07-20T11:30:16;1.92;;;1.33;;
34541;SDS011;20784;51.332;12.410;2023-07-20T11:32:47;1.80;;;1.40;;
34541;SDS011;20784;51.332;12.410;2023-07-20T11:35:15;1.40;;;1.30;;
34541;SDS011;20784;51.332;12.410;2023-07-20T11:37:41;1.77;;;1.42;;
34541;SDS011;20784;51.332;12.410;2023-07-20T11:40:07;1.55;;;1.45;;
34541;SDS011;20784;51.332;12.410;2023-07-20T11:42:34;2.35;;;1.67;;
34541;SDS011;20784;51.332;12.410;2023-07-20T11:45:02;3.58;;;1.70;;
34541;SDS011;20784;51.332;12.410;2023-07-20T11:47:30;1.42;;;1.25;;
34541;SDS011;20784;51.332;12.410;2023-07-20T11:50:02;2.75;;;1.30;;
34541;SDS011;20784;51.332;12.410;2023-07-20T11:52:31;1.30;;;1.20;;
34541;SDS011;20784;51.332;12.410;2023-07-20T11:55:02;1.80;;;1.42;;
34541;SDS011;20784;51.332;12.410;2023-07-20T11:57:29;1.63;;;1.35;;
34541;SDS011;20784;51.332;12.410;2023-07-20T12:00:01;3.60;;;1.48;;
34541;SDS011;20784;51.332;12.410;2023-07-20T12:02:36;1.40;;;1.30;;
34541;SDS011;20784;51.332;12.410;2023-07-20T12:05:04;3.17;;;1.60;;
34541;SDS011;20784;51.332;12.410;2023-07-20T12:07:32;1.75;;;1.35;;
34541;SDS011;20784;51.332;12.410;2023-07-20T12:10:11;2.60;;;1.35;;
34541;SDS011;20784;51.332;12.410;2023-07-20T12:12:41;3.22;;;1.60;;
34541;SDS011;20784;51.332;12.410;2023-07-20T12:17:48;3.15;;;1.60;;
34541;SDS011;20784;51.332;12.410;2023-07-20T12:26:16;1.73;;;1.60;;
34541;SDS011;20784;51.332;12.410;2023-07-20T12:28:45;3.65;;;1.80;;
34541;SDS011;20784;51.332;12.410;2023-07-20T12:31:14;2.65;;;1.80;;
34541;SDS011;20784;51.332;12.410;2023-07-20T12:33:40;2.42;;;1.80;;
34541;SDS011;20784;51.332;12.410;2023-07-20T12:36:07;1.50;;;1.40;;
34541;SDS011;20784;51.332;12.410;2023-07-20T12:38:33;2.55;;;1.50;;
34541;SDS011;20784;51.332;12.410;2023-07-20T12:41:02;1.80;;;1.10;;
34541;SDS011;20784;51.332;12.410;2023-07-20T12:43:28;1.42;;;1.00;;
34541;SDS011;20784;51.332;12.410;2023-07-20T12:45:55;1.15;;;0.98;;
34541;SDS011;20784;51.332;12.410;2023-07-20T12:48:24;0.80;;;0.80;;
34541;SDS011;20784;51.332;12.410;2023-07-20T12:50:49;1.50;;;1.00;;
34541;SDS011;20784;51.332;12.410;2023-07-20T12:53:16;3.90;;;0.80;;
34541;SDS011;20784;51.332;12.410;2023-07-20T12:55:42;0.95;;;0.80;;
34541;SDS011;20784;51.332;12.410;2023-07-20T12:58:08;1.02;;;0.75;;
34541;SDS011;20784;51.332;12.410;2023-07-20T13:00:33;2.97;;;0.70;;
34541;SDS011;20784;51.332;12.410;2023-07-20T13:02:59;0.82;;;0.60;;
34541;SDS011;20784;51.332;12.410;2023-07-20T13:05:27;1.00;;;0.75;;
34541;SDS011;20784;51.332;12.410;2023-07-20T13:08:14;2.05;;;0.70;;
34541;SDS011;20784;51.332;12.410;2023-07-20T13:10:56;2.92;;;0.73;;
34541;SDS011;20784;51.332;12.410;2023-07-20T13:13:28;0.73;;;0.60;;
34541;SDS011;20784;51.332;12.410;2023-07-20T13:16:00;1.15;;;0.52;;
34541;SDS011;20784;51.332;12.410;2023-07-20T13:18:28;0.65;;;0.50;;
34541;SDS011;20784;51.332;12.410;2023-07-20T13:21:09;0.77;;;0.70;;
34541;SDS011;20784;51.332;12.410;2023-07-20T13:23:36;1.80;;;0.95;;
34541;SDS011;20784;51.332;12.410;2023-07-20T13:26:14;3.30;;;0.70;;
34541;SDS011;20784;51.332;12.410;2023-07-20T13:28:46;3.00;;;1.00;;
34541;SDS011;20784;51.332;12.410;2023-07-20T13:31:27;0.90;;;0.90;;
34541;SDS011;20784;51.332;12.410;2023-07-20T13:33:53;0.80;;;0.70;;
34541;SDS011;20784;51.332;12.410;2023-07-20T13:36:22;0.65;;;0.65;;
34541;SDS011;20784;51.332;12.410;2023-07-20T13:38:58;1.25;;;0.80;;
34541;SDS011;20784;51.332;12.410;2023-07-20T13:41:34;1.17;;;0.80;;
34541;SDS011;20784;51.332;12.410;2023-07-20T13:44:01;1.30;;;1.00;;
34541;SDS011;20784;51.332;12.410;2023-07-20T13:46:27;1.10;;;1.00;;
34541;SDS011;20784;51.332;12.410;2023-07-20T13:48:56;2.00;;;1.20;;
34541;SDS011;20784;51.332;12.410;2023-07-20T13:51:34;1.15;;;1.00;;
34541;SDS011;20784;51.332;12.410;2023-07-20T13:54:14;1.30;;;1.20;;
34541;SDS011;20784;51.332;12.410;2023-07-20T13:56:47;1.20;;;1.00;;
34541;SDS011;20784;51.332;12.410;2023-07-20T13:59:13;1.30;;;1.20;;
34541;SDS011;20784;51.332;12.410;2023-07-20T14:01:39;2.03;;;1.20;;
34541;SDS011;20784;51.332;12.410;2023-07-20T14:04:10;1.70;;;1.60;;
34541;SDS011;20784;51.332;12.410;2023-07-20T14:06:38;1.52;;;1.25;;
34541;SDS011;20784;51.332;12.410;2023-07-20T14:09:04;1.67;;;1.50;;
34541;SDS011;20784;51.332;12.410;2023-07-20T14:11:30;1.30;;;1.20;;
34541;SDS011;20784;51.332;12.410;2023-07-20T14:13:56;1.55;;;1.35;;
34541;SDS011;20784;51.332;12.410;2023-07-20T14:16:23;1.30;;;1.20;;
34541;SDS011;20784;51.332;12.410;2023-07-20T14:18:49;2.15;;;1.50;;
34541;SDS011;20784;51.332;12.410;2023-07-20T14:21:15;1.33;;;1.23;;
34541;SDS011;20784;51.332;12.410;2023-07-20T14:23:44;3.67;;;1.50;;
34541;SDS011;20784;51.332;12.410;2023-07-20T14:26:10;2.55;;;2.03;;
34541;SDS011;20784;51.332;12.410;2023-07-20T14:28:36;3.63;;;3.13;;
34541;SDS011;20784;51.332;12.410;2023-07-20T14:31:02;1.75;;;1.55;;
34541;SDS011;20784;51.332;12.410;2023-07-20T14:33:28;1.40;;;1.30;;
34541;SDS011;20784;51.332;12.410;2023-07-20T14:35:54;1.60;;;1.50;;
34541;SDS011;20784;51.332;12.410;2023-07-20T14:38:19;1.80;;;1.50;;
34541;SDS011;20784;51.332;12.410;2023-07-20T14:40:50;1.38;;;1.23;;
34541;SDS011;20784;51.332;12.410;2023-07-20T14:43:16;1.30;;;1.20;;
34541;SDS011;20784;51.332;12.410;2023-07-20T14:45:45;1.65;;;1.55;;
34541;SDS011;20784;51.332;12.410;2023-07-20T14:48:10;1.25;;;1.15;;
34541;SDS011;20784;51.332;12.410;2023-07-20T14:50:36;1.85;;;1.58;;
34541;SDS011;20784;51.332;12.410;2023-07-20T14:53:02;2.05;;;1.40;;
34541;SDS011;20784;51.332;12.410;2023-07-20T14:55:30;1.75;;;1.48;;
34541;SDS011;20784;51.332;12.410;2023-07-20T14:58:08;1.85;;;1.30;;
34541;SDS011;20784;51.332;12.410;2023-07-20T15:00:57;2.28;;;1.67;;
34541;SDS011;20784;51.332;12.410;2023-07-20T15:03:23;1.60;;;1.50;;
34541;SDS011;20784;51.332;12.410;2023-07-20T15:05:53;1.85;;;1.60;;
34541;SDS011;20784;51.332;12.410;2023-07-20T15:08:25;1.92;;;1.40;;
34541;SDS011;20784;51.332;12.410;2023-07-20T15:10:50;1.85;;;1.50;;
34541;SDS011;20784;51.332;12.410;2023-07-20T15:13:31;1.50;;;1.40;;